map of VSA home
VSA - Airport
Location
City:  Villahermosa, Tabasco, México
Name:C.P.A. Carlos Rovirosa Pérez International Airport
ICAO:MMVA
IATA:VSA

Details
Type:Airport (Aerodrome, Airfield)
Use:Public/Civil, International (customs port of entry)
Latitude:17°59'49"N (17.997000)
Longitude:92°49'02"W (-92.817360)
Datum:WGS 1984
Elevation:46 ft (14 m)
Variation:1.84°E (WMM2015 magnetic declination)
-0.13° annual change
Runways:1
Longest:7218 × 148 ft (2200 × 45 m), paved

Time
Time Zone:UTC-6 (DST-5)
Local Time:

Weather
METAR:MMVA 171240Z 10005KT 1 1/2SM BR BKN015 OVC070 21/21 A3002 RMK 8/52/
TAF:MMVA 170547Z 1706/1806 00000KT P6SM SCT015
TEMPO 1710/1714 2SM BR BKN010
FM171800 08010KT P6SM SCT020 SCT100
FM180200 06005T 5SM HZ SCT015

Related Locations
Nearby:
Farthest:CCK: 11686 mi / 18806 km
West Island (Pulau Panjang) [Cocos (Keeling) Islands], CC

Find:

   beyond  
but within

Other Information
Maps:
NOTAMs:
Links:
Sources:

  
flag of México
flag of Tabasco
  

Sectional Chart

Flight Planning
at skyvector.com

Satellite Image

Google Maps Satellite view

 

Copyright © 2004-2017 Karl L. Swartz. All rights reserved.
The Great Circle Mapper name and logo are trademarks of the Great Circle Mapper.
All other trademarks mentioned herein belong to their respective owners.
Please see credits for attibutions and further copyright information.

  Follow gcmap on Facebook Follow gcmap on Twitter Follow gcmap on Google+ GCmap on LinkedIn

hCard Microformat

Geo Microformat